sensor_id;sensor_type;location;lat;lon;timestamp;P1;durP1;ratioP1;P2;durP2;ratioP2
12760;SDS011;6444;49.742;6.114;2024-02-21T00:00:38;19.48;;;9.40;;
12760;SDS011;6444;49.742;6.114;2024-02-21T00:03:05;17.23;;;8.15;;
12760;SDS011;6444;49.742;6.114;2024-02-21T00:05:31;14.32;;;8.07;;
12760;SDS011;6444;49.742;6.114;2024-02-21T00:07:59;15.70;;;7.95;;
12760;SDS011;6444;49.742;6.114;2024-02-21T00:10:25;16.12;;;7.70;;
12760;SDS011;6444;49.742;6.114;2024-02-21T00:12:51;17.87;;;8.57;;
12760;SDS011;6444;49.742;6.114;2024-02-21T00:15:19;15.15;;;7.72;;
12760;SDS011;6444;49.742;6.114;2024-02-21T00:17:45;16.73;;;9.30;;
12760;SDS011;6444;49.742;6.114;2024-02-21T00:20:12;16.65;;;7.82;;
12760;SDS011;6444;49.742;6.114;2024-02-21T00:22:39;13.62;;;7.68;;
12760;SDS011;6444;49.742;6.114;2024-02-21T00:25:05;13.20;;;7.85;;
12760;SDS011;6444;49.742;6.114;2024-02-21T00:27:33;22.20;;;9.20;;
12760;SDS011;6444;49.742;6.114;2024-02-21T00:29:59;17.17;;;8.02;;
12760;SDS011;6444;49.742;6.114;2024-02-21T00:32:26;16.02;;;8.30;;
12760;SDS011;6444;49.742;6.114;2024-02-21T00:34:53;18.25;;;8.18;;
12760;SDS011;6444;49.742;6.114;2024-02-21T00:37:20;16.30;;;8.82;;
12760;SDS011;6444;49.742;6.114;2024-02-21T00:39:47;18.03;;;8.43;;
12760;SDS011;6444;49.742;6.114;2024-02-21T00:42:13;18.62;;;8.15;;
12760;SDS011;6444;49.742;6.114;2024-02-21T00:44:40;16.92;;;7.60;;
12760;SDS011;6444;49.742;6.114;2024-02-21T00:47:06;19.20;;;9.93;;
12760;SDS011;6444;49.742;6.114;2024-02-21T00:49:34;17.83;;;8.55;;
12760;SDS011;6444;49.742;6.114;2024-02-21T00:52:00;18.87;;;8.23;;
12760;SDS011;6444;49.742;6.114;2024-02-21T00:54:27;13.43;;;6.95;;
12760;SDS011;6444;49.742;6.114;2024-02-21T00:56:54;17.33;;;8.13;;
12760;SDS011;6444;49.742;6.114;2024-02-21T00:59:21;18.67;;;7.75;;
12760;SDS011;6444;49.742;6.114;2024-02-21T01:01:48;16.05;;;7.37;;
12760;SDS011;6444;49.742;6.114;2024-02-21T01:04:14;13.60;;;6.97;;
12760;SDS011;6444;49.742;6.114;2024-02-21T01:06:42;15.82;;;6.80;;
12760;SDS011;6444;49.742;6.114;2024-02-21T01:09:08;14.77;;;7.80;;
12760;SDS011;6444;49.742;6.114;2024-02-21T01:11:35;14.40;;;6.97;;
12760;SDS011;6444;49.742;6.114;2024-02-21T01:14:02;17.20;;;7.22;;
12760;SDS011;6444;49.742;6.114;2024-02-21T01:16:28;17.15;;;7.53;;
12760;SDS011;6444;49.742;6.114;2024-02-21T01:18:56;15.80;;;7.10;;
12760;SDS011;6444;49.742;6.114;2024-02-21T01:21:22;18.20;;;7.50;;
12760;SDS011;6444;49.742;6.114;2024-02-21T01:23:49;11.12;;;6.15;;
12760;SDS011;6444;49.742;6.114;2024-02-21T01:26:16;16.10;;;7.05;;
12760;SDS011;6444;49.742;6.114;2024-02-21T01:28:42;16.52;;;7.22;;
12760;SDS011;6444;49.742;6.114;2024-02-21T01:31:10;14.30;;;7.12;;
12760;SDS011;6444;49.742;6.114;2024-02-21T01:33:36;18.35;;;6.75;;
12760;SDS011;6444;49.742;6.114;2024-02-21T01:36:03;12.73;;;6.12;;
12760;SDS011;6444;49.742;6.114;2024-02-21T01:38:29;15.50;;;6.75;;
12760;SDS011;6444;49.742;6.114;2024-02-21T01:40:56;12.00;;;6.80;;
12760;SDS011;6444;49.742;6.114;2024-02-21T01:43:23;15.63;;;6.90;;
12760;SDS011;6444;49.742;6.114;2024-02-21T01:45:52;12.75;;;5.82;;
12760;SDS011;6444;49.742;6.114;2024-02-21T01:48:17;15.07;;;6.40;;
12760;SDS011;6444;49.742;6.114;2024-02-21T01:50:46;12.47;;;6.43;;
12760;SDS011;6444;49.742;6.114;2024-02-21T01:53:14;11.50;;;5.20;;
12760;SDS011;6444;49.742;6.114;2024-02-21T01:55:46;11.27;;;5.77;;
12760;SDS011;6444;49.742;6.114;2024-02-21T01:58:13;15.90;;;6.70;;
12760;SDS011;6444;49.742;6.114;2024-02-21T02:00:40;16.97;;;6.10;;
12760;SDS011;6444;49.742;6.114;2024-02-21T02:03:10;11.47;;;6.13;;
12760;SDS011;6444;49.742;6.114;2024-02-21T02:05:41;13.90;;;6.50;;
12760;SDS011;6444;49.742;6.114;2024-02-21T02:08:08;13.67;;;5.80;;
12760;SDS011;6444;49.742;6.114;2024-02-21T02:10:35;15.47;;;6.07;;
12760;SDS011;6444;49.742;6.114;2024-02-21T02:13:02;12.33;;;6.03;;
12760;SDS011;6444;49.742;6.114;2024-02-21T02:15:37;16.77;;;6.72;;
12760;SDS011;6444;49.742;6.114;2024-02-21T02:17:55;13.17;;;5.97;;
12760;SDS011;6444;49.742;6.114;2024-02-21T02:20:22;11.77;;;6.10;;
12760;SDS011;6444;49.742;6.114;2024-02-21T02:22:49;12.40;;;6.80;;
12760;SDS011;6444;49.742;6.114;2024-02-21T02:25:16;11.23;;;5.97;;
12760;SDS011;6444;49.742;6.114;2024-02-21T02:27:43;16.35;;;6.07;;
12760;SDS011;6444;49.742;6.114;2024-02-21T02:30:11;12.10;;;6.43;;
12760;SDS011;6444;49.742;6.114;2024-02-21T02:32:38;14.97;;;6.17;;
12760;SDS011;6444;49.742;6.114;2024-02-21T02:35:05;11.87;;;6.30;;
12760;SDS011;6444;49.742;6.114;2024-02-21T02:37:31;11.90;;;5.77;;
12760;SDS011;6444;49.742;6.114;2024-02-21T02:39:59;16.20;;;6.25;;
12760;SDS011;6444;49.742;6.114;2024-02-21T02:42:25;14.93;;;6.30;;
12760;SDS011;6444;49.742;6.114;2024-02-21T02:44:52;14.00;;;6.20;;
12760;SDS011;6444;49.742;6.114;2024-02-21T02:47:19;10.37;;;5.97;;
12760;SDS011;6444;49.742;6.114;2024-02-21T02:49:46;9.83;;;5.50;;
12760;SDS011;6444;49.742;6.114;2024-02-21T02:52:13;10.37;;;5.80;;
12760;SDS011;6444;49.742;6.114;2024-02-21T02:54:39;13.27;;;6.77;;
12760;SDS011;6444;49.742;6.114;2024-02-21T02:57:07;15.07;;;6.10;;
12760;SDS011;6444;49.742;6.114;2024-02-21T02:59:33;12.80;;;6.23;;
12760;SDS011;6444;49.742;6.114;2024-02-21T03:02:00;17.43;;;6.30;;
12760;SDS011;6444;49.742;6.114;2024-02-21T03:04:27;11.50;;;6.03;;
12760;SDS011;6444;49.742;6.114;2024-02-21T03:06:54;17.50;;;6.60;;
12760;SDS011;6444;49.742;6.114;2024-02-21T03:09:20;15.10;;;5.83;;
12760;SDS011;6444;49.742;6.114;2024-02-21T03:11:47;15.50;;;5.90;;
12760;SDS011;6444;49.742;6.114;2024-02-21T03:14:14;13.30;;;5.80;;
12760;SDS011;6444;49.742;6.114;2024-02-21T03:16:40;12.77;;;6.30;;
12760;SDS011;6444;49.742;6.114;2024-02-21T03:19:07;12.40;;;6.40;;
12760;SDS011;6444;49.742;6.114;2024-02-21T03:21:34;11.37;;;5.80;;
12760;SDS011;6444;49.742;6.114;2024-02-21T03:24:00;11.03;;;6.70;;
12760;SDS011;6444;49.742;6.114;2024-02-21T03:26:27;15.53;;;6.30;;
12760;SDS011;6444;49.742;6.114;2024-02-21T03:28:56;13.70;;;6.20;;
12760;SDS011;6444;49.742;6.114;2024-02-21T03:31:20;13.07;;;6.37;;
12760;SDS011;6444;49.742;6.114;2024-02-21T03:33:47;11.17;;;5.87;;
12760;SDS011;6444;49.742;6.114;2024-02-21T03:36:14;12.93;;;6.27;;
12760;SDS011;6444;49.742;6.114;2024-02-21T03:38:41;14.37;;;6.50;;
12760;SDS011;6444;49.742;6.114;2024-02-21T03:41:07;11.93;;;6.13;;
12760;SDS011;6444;49.742;6.114;2024-02-21T03:43:35;11.90;;;5.87;;
12760;SDS011;6444;49.742;6.114;2024-02-21T03:46:01;13.13;;;6.63;;
12760;SDS011;6444;49.742;6.114;2024-02-21T03:48:28;8.98;;;6.07;;
12760;SDS011;6444;49.742;6.114;2024-02-21T03:50:55;13.97;;;5.43;;
12760;SDS011;6444;49.742;6.114;2024-02-21T03:53:21;16.02;;;7.00;;
12760;SDS011;6444;49.742;6.114;2024-02-21T03:55:48;14.25;;;6.45;;
12760;SDS011;6444;49.742;6.114;2024-02-21T03:58:15;16.75;;;5.87;;
12760;SDS011;6444;49.742;6.114;2024-02-21T04:00:42;13.18;;;6.07;;
12760;SDS011;6444;49.742;6.114;2024-02-21T04:03:09;15.40;;;5.97;;
12760;SDS011;6444;49.742;6.114;2024-02-21T04:05:36;15.00;;;6.47;;
12760;SDS011;6444;49.742;6.114;2024-02-21T04:08:06;15.90;;;6.17;;
12760;SDS011;6444;49.742;6.114;2024-02-21T04:10:32;14.83;;;5.50;;
12760;SDS011;6444;49.742;6.114;2024-02-21T04:12:59;13.07;;;5.37;;
12760;SDS011;6444;49.742;6.114;2024-02-21T04:15:26;13.60;;;5.55;;
12760;SDS011;6444;49.742;6.114;2024-02-21T04:17:52;14.13;;;5.45;;
12760;SDS011;6444;49.742;6.114;2024-02-21T04:20:19;11.70;;;6.00;;
12760;SDS011;6444;49.742;6.114;2024-02-21T04:22:46;18.97;;;6.43;;
12760;SDS011;6444;49.742;6.114;2024-02-21T04:25:13;15.48;;;5.35;;
12760;SDS011;6444;49.742;6.114;2024-02-21T04:27:40;15.80;;;6.30;;
12760;SDS011;6444;49.742;6.114;2024-02-21T04:30:07;13.47;;;5.57;;
12760;SDS011;6444;49.742;6.114;2024-02-21T04:32:34;13.57;;;5.47;;
12760;SDS011;6444;49.742;6.114;2024-02-21T04:35:00;12.43;;;5.85;;
12760;SDS011;6444;49.742;6.114;2024-02-21T04:37:27;18.80;;;7.62;;
12760;SDS011;6444;49.742;6.114;2024-02-21T04:39:54;18.15;;;6.35;;
12760;SDS011;6444;49.742;6.114;2024-02-21T04:42:20;10.35;;;5.95;;
12760;SDS011;6444;49.742;6.114;2024-02-21T04:44:47;14.68;;;5.70;;
12760;SDS011;6444;49.742;6.114;2024-02-21T04:47:13;16.02;;;5.72;;
12760;SDS011;6444;49.742;6.114;2024-02-21T04:49:40;12.88;;;6.03;;
12760;SDS011;6444;49.742;6.114;2024-02-21T04:52:07;14.60;;;6.65;;
12760;SDS011;6444;49.742;6.114;2024-02-21T04:54:34;17.98;;;7.25;;
12760;SDS011;6444;49.742;6.114;2024-02-21T04:59:30;15.95;;;6.10;;
12760;SDS011;6444;49.742;6.114;2024-02-21T05:01:57;15.40;;;6.68;;
12760;SDS011;6444;49.742;6.114;2024-02-21T05:04:24;16.35;;;6.35;;
12760;SDS011;6444;49.742;6.114;2024-02-21T05:06:51;11.25;;;5.90;;
12760;SDS011;6444;49.742;6.114;2024-02-21T05:09:17;16.95;;;6.32;;
12760;SDS011;6444;49.742;6.114;2024-02-21T05:11:44;14.32;;;6.10;;
12760;SDS011;6444;49.742;6.114;2024-02-21T05:14:10;19.83;;;6.40;;
12760;SDS011;6444;49.742;6.114;2024-02-21T05:16:38;10.53;;;5.70;;
12760;SDS011;6444;49.742;6.114;2024-02-21T05:19:04;12.10;;;6.63;;
12760;SDS011;6444;49.742;6.114;2024-02-21T05:21:30;15.80;;;6.90;;
12760;SDS011;6444;49.742;6.114;2024-02-21T05:23:57;18.02;;;7.80;;
12760;SDS011;6444;49.742;6.114;2024-02-21T05:26:24;16.15;;;6.07;;
12760;SDS011;6444;49.742;6.114;2024-02-21T05:28:50;14.90;;;6.03;;
12760;SDS011;6444;49.742;6.114;2024-02-21T05:31:20;15.15;;;5.95;;
12760;SDS011;6444;49.742;6.114;2024-02-21T05:33:46;11.90;;;5.63;;
12760;SDS011;6444;49.742;6.114;2024-02-21T05:36:13;14.23;;;5.33;;
12760;SDS011;6444;49.742;6.114;2024-02-21T05:38:40;15.75;;;6.22;;
12760;SDS011;6444;49.742;6.114;2024-02-21T05:41:06;15.48;;;5.90;;
12760;SDS011;6444;49.742;6.114;2024-02-21T05:43:33;11.30;;;5.82;;
12760;SDS011;6444;49.742;6.114;2024-02-21T05:46:00;15.48;;;6.37;;
12760;SDS011;6444;49.742;6.114;2024-02-21T05:48:26;15.63;;;6.57;;
12760;SDS011;6444;49.742;6.114;2024-02-21T05:50:53;11.63;;;5.90;;
12760;SDS011;6444;49.742;6.114;2024-02-21T05:53:19;13.07;;;6.72;;
12760;SDS011;6444;49.742;6.114;2024-02-21T05:55:46;16.95;;;6.30;;
12760;SDS011;6444;49.742;6.114;2024-02-21T05:58:13;11.12;;;6.35;;
12760;SDS011;6444;49.742;6.114;2024-02-21T06:00:39;13.60;;;6.57;;
12760;SDS011;6444;49.742;6.114;2024-02-21T06:03:06;14.63;;;6.20;;
12760;SDS011;6444;49.742;6.114;2024-02-21T06:05:36;14.65;;;7.10;;
12760;SDS011;6444;49.742;6.114;2024-02-21T06:08:02;13.27;;;6.07;;
12760;SDS011;6444;49.742;6.114;2024-02-21T06:10:29;12.37;;;6.85;;
12760;SDS011;6444;49.742;6.114;2024-02-21T06:12:55;15.23;;;7.13;;
12760;SDS011;6444;49.742;6.114;2024-02-21T06:15:22;15.82;;;8.23;;
12760;SDS011;6444;49.742;6.114;2024-02-21T06:17:49;17.77;;;7.43;;
12760;SDS011;6444;49.742;6.114;2024-02-21T06:20:18;19.37;;;7.07;;
12760;SDS011;6444;49.742;6.114;2024-02-21T06:22:45;8.25;;;5.47;;
12760;SDS011;6444;49.742;6.114;2024-02-21T06:25:11;11.77;;;5.97;;
12760;SDS011;6444;49.742;6.114;2024-02-21T06:27:38;13.60;;;5.43;;
12760;SDS011;6444;49.742;6.114;2024-02-21T06:30:05;12.77;;;5.57;;
12760;SDS011;6444;49.742;6.114;2024-02-21T06:32:32;13.73;;;7.03;;
12760;SDS011;6444;49.742;6.114;2024-02-21T06:34:59;11.90;;;5.07;;
12760;SDS011;6444;49.742;6.114;2024-02-21T06:37:25;14.50;;;6.00;;
12760;SDS011;6444;49.742;6.114;2024-02-21T06:39:52;16.62;;;5.32;;
12760;SDS011;6444;49.742;6.114;2024-02-21T06:42:19;12.77;;;6.20;;
12760;SDS011;6444;49.742;6.114;2024-02-21T06:44:45;13.90;;;6.28;;
12760;SDS011;6444;49.742;6.114;2024-02-21T06:47:12;10.20;;;5.50;;
12760;SDS011;6444;49.742;6.114;2024-02-21T06:49:39;13.23;;;5.90;;
12760;SDS011;6444;49.742;6.114;2024-02-21T06:52:05;8.70;;;5.20;;
12760;SDS011;6444;49.742;6.114;2024-02-21T06:54:32;13.62;;;5.57;;
12760;SDS011;6444;49.742;6.114;2024-02-21T06:56:58;13.02;;;4.80;;
12760;SDS011;6444;49.742;6.114;2024-02-21T06:59:25;12.07;;;5.20;;
12760;SDS011;6444;49.742;6.114;2024-02-21T07:01:53;10.68;;;4.70;;
12760;SDS011;6444;49.742;6.114;2024-02-21T07:04:18;13.23;;;4.50;;
12760;SDS011;6444;49.742;6.114;2024-02-21T07:06:45;14.43;;;4.80;;
12760;SDS011;6444;49.742;6.114;2024-02-21T07:09:12;10.52;;;5.10;;
12760;SDS011;6444;49.742;6.114;2024-02-21T07:11:38;9.60;;;5.82;;
12760;SDS011;6444;49.742;6.114;2024-02-21T07:14:05;11.18;;;5.00;;
12760;SDS011;6444;49.742;6.114;2024-02-21T07:16:31;12.13;;;5.40;;
12760;SDS011;6444;49.742;6.114;2024-02-21T07:18:59;11.70;;;5.65;;
12760;SDS011;6444;49.742;6.114;2024-02-21T07:21:25;10.82;;;5.87;;
12760;SDS011;6444;49.742;6.114;2024-02-21T07:23:52;14.87;;;5.97;;
12760;SDS011;6444;49.742;6.114;2024-02-21T07:26:19;7.80;;;5.53;;
12760;SDS011;6444;49.742;6.114;2024-02-21T07:28:45;16.12;;;7.75;;
12760;SDS011;6444;49.742;6.114;2024-02-21T07:31:12;14.90;;;7.60;;
12760;SDS011;6444;49.742;6.114;2024-02-21T07:33:39;16.45;;;7.10;;
12760;SDS011;6444;49.742;6.114;2024-02-21T07:36:06;13.25;;;6.72;;
12760;SDS011;6444;49.742;6.114;2024-02-21T07:38:35;16.52;;;8.00;;
12760;SDS011;6444;49.742;6.114;2024-02-21T07:41:02;17.48;;;6.85;;
12760;SDS011;6444;49.742;6.114;2024-02-21T07:43:29;15.05;;;7.68;;
12760;SDS011;6444;49.742;6.114;2024-02-21T07:45:55;15.30;;;7.00;;
12760;SDS011;6444;49.742;6.114;2024-02-21T07:48:22;15.10;;;8.75;;
12760;SDS011;6444;49.742;6.114;2024-02-21T07:50:51;13.50;;;6.82;;
12760;SDS011;6444;49.742;6.114;2024-02-21T07:53:19;12.70;;;6.50;;
12760;SDS011;6444;49.742;6.114;2024-02-21T07:55:45;12.30;;;6.78;;
12760;SDS011;6444;49.742;6.114;2024-02-21T07:58:12;13.85;;;6.53;;
12760;SDS011;6444;49.742;6.114;2024-02-21T08:00:39;12.13;;;6.12;;
12760;SDS011;6444;49.742;6.114;2024-02-21T08:03:05;15.98;;;6.47;;
12760;SDS011;6444;49.742;6.114;2024-02-21T08:05:36;13.82;;;5.95;;
12760;SDS011;6444;49.742;6.114;2024-02-21T08:08:03;12.48;;;7.12;;
12760;SDS011;6444;49.742;6.114;2024-02-21T08:10:29;14.20;;;6.37;;
12760;SDS011;6444;49.742;6.114;2024-02-21T08:12:55;16.17;;;6.45;;
12760;SDS011;6444;49.742;6.114;2024-02-21T08:15:22;14.63;;;7.12;;
12760;SDS011;6444;49.742;6.114;2024-02-21T08:17:49;15.52;;;7.28;;
12760;SDS011;6444;49.742;6.114;2024-02-21T08:20:15;16.83;;;5.97;;
12760;SDS011;6444;49.742;6.114;2024-02-21T08:22:42;12.60;;;6.57;;
12760;SDS011;6444;49.742;6.114;2024-02-21T08:25:08;15.18;;;7.15;;
12760;SDS011;6444;49.742;6.114;2024-02-21T08:27:35;12.43;;;5.68;;
12760;SDS011;6444;49.742;6.114;2024-02-21T08:30:02;16.85;;;6.50;;
12760;SDS011;6444;49.742;6.114;2024-02-21T08:32:30;18.40;;;5.82;;
12760;SDS011;6444;49.742;6.114;2024-02-21T08:34:56;15.43;;;6.60;;
12760;SDS011;6444;49.742;6.114;2024-02-21T08:37:23;13.10;;;6.50;;
12760;SDS011;6444;49.742;6.114;2024-02-21T08:39:49;13.70;;;6.40;;
12760;SDS011;6444;49.742;6.114;2024-02-21T08:42:17;14.87;;;6.82;;
12760;SDS011;6444;49.742;6.114;2024-02-21T08:44:44;15.30;;;5.75;;
12760;SDS011;6444;49.742;6.114;2024-02-21T08:47:10;15.25;;;5.90;;
12760;SDS011;6444;49.742;6.114;2024-02-21T08:49:37;11.93;;;5.82;;
12760;SDS011;6444;49.742;6.114;2024-02-21T08:52:04;13.50;;;6.22;;
12760;SDS011;6444;49.742;6.114;2024-02-21T08:54:31;13.52;;;6.12;;
12760;SDS011;6444;49.742;6.114;2024-02-21T08:56:57;11.57;;;6.62;;
12760;SDS011;6444;49.742;6.114;2024-02-21T08:59:24;16.80;;;7.12;;
12760;SDS011;6444;49.742;6.114;2024-02-21T09:01:51;14.02;;;6.47;;
12760;SDS011;6444;49.742;6.114;2024-02-21T09:04:17;16.75;;;7.28;;
12760;SDS011;6444;49.742;6.114;2024-02-21T09:06:44;12.00;;;5.72;;
12760;SDS011;6444;49.742;6.114;2024-02-21T09:09:10;16.33;;;6.20;;
12760;SDS011;6444;49.742;6.114;2024-02-21T09:11:37;17.30;;;6.00;;
12760;SDS011;6444;49.742;6.114;2024-02-21T09:14:04;12.37;;;5.15;;
12760;SDS011;6444;49.742;6.114;2024-02-21T09:16:33;11.82;;;4.85;;
12760;SDS011;6444;49.742;6.114;2024-02-21T09:19:00;11.85;;;5.10;;
12760;SDS011;6444;49.742;6.114;2024-02-21T09:21:27;7.72;;;4.90;;
12760;SDS011;6444;49.742;6.114;2024-02-21T09:23:53;12.93;;;6.25;;
12760;SDS011;6444;49.742;6.114;2024-02-21T09:26:20;15.80;;;6.32;;
12760;SDS011;6444;49.742;6.114;2024-02-21T09:28:46;15.18;;;4.97;;
12760;SDS011;6444;49.742;6.114;2024-02-21T09:31:13;12.40;;;5.65;;
12760;SDS011;6444;49.742;6.114;2024-02-21T09:33:40;12.95;;;5.32;;
12760;SDS011;6444;49.742;6.114;2024-02-21T09:36:06;15.52;;;5.55;;
12760;SDS011;6444;49.742;6.114;2024-02-21T09:38:33;10.60;;;4.87;;
12760;SDS011;6444;49.742;6.114;2024-02-21T09:41:03;10.25;;;5.10;;
12760;SDS011;6444;49.742;6.114;2024-02-21T09:43:26;14.35;;;5.80;;
12760;SDS011;6444;49.742;6.114;2024-02-21T09:45:54;16.08;;;5.85;;
12760;SDS011;6444;49.742;6.114;2024-02-21T09:51:04;13.18;;;5.97;;
12760;SDS011;6444;49.742;6.114;2024-02-21T09:53:31;15.15;;;5.65;;
12760;SDS011;6444;49.742;6.114;2024-02-21T09:55:58;12.00;;;4.85;;
12760;SDS011;6444;49.742;6.114;2024-02-21T09:58:25;11.20;;;4.85;;
12760;SDS011;6444;49.742;6.114;2024-02-21T10:00:51;18.80;;;5.20;;
12760;SDS011;6444;49.742;6.114;2024-02-21T10:03:17;9.32;;;4.75;;
12760;SDS011;6444;49.742;6.114;2024-02-21T10:05:48;11.20;;;4.90;;
12760;SDS011;6444;49.742;6.114;2024-02-21T10:08:14;11.98;;;4.62;;
12760;SDS011;6444;49.742;6.114;2024-02-21T10:10:44;12.10;;;5.53;;
12760;SDS011;6444;49.742;6.114;2024-02-21T10:13:10;13.50;;;6.00;;
12760;SDS011;6444;49.742;6.114;2024-02-21T10:15:37;9.60;;;4.87;;
12760;SDS011;6444;49.742;6.114;2024-02-21T10:18:04;13.50;;;4.20;;
12760;SDS011;6444;49.742;6.114;2024-02-21T10:20:30;9.00;;;4.43;;
12760;SDS011;6444;49.742;6.114;2024-02-21T10:23:01;15.23;;;4.37;;
12760;SDS011;6444;49.742;6.114;2024-02-21T10:25:27;10.15;;;4.35;;
12760;SDS011;6444;49.742;6.114;2024-02-21T10:27:54;10.82;;;4.68;;
12760;SDS011;6444;49.742;6.114;2024-02-21T10:30:20;10.95;;;4.57;;
12760;SDS011;6444;49.742;6.114;2024-02-21T10:32:50;12.40;;;5.40;;
12760;SDS011;6444;49.742;6.114;2024-02-21T10:35:25;13.90;;;4.72;;
12760;SDS011;6444;49.742;6.114;2024-02-21T10:37:51;12.18;;;4.18;;
12760;SDS011;6444;49.742;6.114;2024-02-21T10:40:18;12.90;;;5.22;;
12760;SDS011;6444;49.742;6.114;2024-02-21T10:42:45;11.52;;;4.30;;
12760;SDS011;6444;49.742;6.114;2024-02-21T10:45:11;10.55;;;4.20;;
12760;SDS011;6444;49.742;6.114;2024-02-21T10:47:38;9.90;;;4.07;;
12760;SDS011;6444;49.742;6.114;2024-02-21T10:50:05;9.27;;;4.00;;
12760;SDS011;6444;49.742;6.114;2024-02-21T10:52:35;8.65;;;3.65;;
12760;SDS011;6444;49.742;6.114;2024-02-21T10:54:59;9.13;;;3.80;;
12760;SDS011;6444;49.742;6.114;2024-02-21T10:57:25;11.65;;;4.05;;
12760;SDS011;6444;49.742;6.114;2024-02-21T10:59:51;10.43;;;4.62;;
12760;SDS011;6444;49.742;6.114;2024-02-21T11:02:18;12.10;;;4.95;;
12760;SDS011;6444;49.742;6.114;2024-02-21T11:04:45;9.55;;;4.97;;
12760;SDS011;6444;49.742;6.114;2024-02-21T11:07:11;10.57;;;4.80;;
12760;SDS011;6444;49.742;6.114;2024-02-21T11:09:38;8.70;;;4.40;;
12760;SDS011;6444;49.742;6.114;2024-02-21T11:12:05;8.98;;;4.80;;
12760;SDS011;6444;49.742;6.114;2024-02-21T11:14:31;10.80;;;4.20;;
12760;SDS011;6444;49.742;6.114;2024-02-21T11:16:58;10.40;;;4.25;;
12760;SDS011;6444;49.742;6.114;2024-02-21T11:19:25;8.23;;;4.22;;
12760;SDS011;6444;49.742;6.114;2024-02-21T11:21:51;12.52;;;5.30;;
12760;SDS011;6444;49.742;6.114;2024-02-21T11:24:30;7.97;;;4.20;;
12760;SDS011;6444;49.742;6.114;2024-02-21T11:27:09;10.93;;;3.72;;
12760;SDS011;6444;49.742;6.114;2024-02-21T11:29:24;11.52;;;4.25;;
12760;SDS011;6444;49.742;6.114;2024-02-21T11:31:50;10.68;;;4.28;;
12760;SDS011;6444;49.742;6.114;2024-02-21T11:34:20;7.70;;;4.35;;
12760;SDS011;6444;49.742;6.114;2024-02-21T11:36:50;11.00;;;4.45;;
12760;SDS011;6444;49.742;6.114;2024-02-21T11:39:17;5.57;;;4.10;;
12760;SDS011;6444;49.742;6.114;2024-02-21T11:41:40;9.75;;;3.78;;
12760;SDS011;6444;49.742;6.114;2024-02-21T11:44:07;9.02;;;4.32;;
12760;SDS011;6444;49.742;6.114;2024-02-21T11:46:33;9.80;;;4.18;;
12760;SDS011;6444;49.742;6.114;2024-02-21T11:49:01;10.65;;;3.78;;
12760;SDS011;6444;49.742;6.114;2024-02-21T11:51:27;7.43;;;3.83;;
12760;SDS011;6444;49.742;6.114;2024-02-21T11:53:54;10.60;;;4.35;;
12760;SDS011;6444;49.742;6.114;2024-02-21T11:56:21;9.90;;;4.78;;
12760;SDS011;6444;49.742;6.114;2024-02-21T11:58:47;9.85;;;4.37;;
12760;SDS011;6444;49.742;6.114;2024-02-21T12:01:14;9.48;;;4.18;;
12760;SDS011;6444;49.742;6.114;2024-02-21T12:03:42;9.48;;;3.75;;
12760;SDS011;6444;49.742;6.114;2024-02-21T12:06:10;7.35;;;3.37;;
12760;SDS011;6444;49.742;6.114;2024-02-21T12:08:41;8.77;;;3.50;;
12760;SDS011;6444;49.742;6.114;2024-02-21T12:11:20;6.57;;;3.35;;
12760;SDS011;6444;49.742;6.114;2024-02-21T12:13:46;5.10;;;3.03;;
12760;SDS011;6444;49.742;6.114;2024-02-21T12:16:14;6.37;;;2.85;;
12760;SDS011;6444;49.742;6.114;2024-02-21T12:18:42;7.93;;;3.15;;
12760;SDS011;6444;49.742;6.114;2024-02-21T12:21:09;9.48;;;3.70;;
12760;SDS011;6444;49.742;6.114;2024-02-21T12:23:35;9.80;;;4.37;;
12760;SDS011;6444;49.742;6.114;2024-02-21T12:26:01;10.35;;;4.18;;
12760;SDS011;6444;49.742;6.114;2024-02-21T12:28:28;8.18;;;3.60;;
12760;SDS011;6444;49.742;6.114;2024-02-21T12:30:55;7.35;;;2.83;;
12760;SDS011;6444;49.742;6.114;2024-02-21T12:33:21;8.68;;;3.20;;
12760;SDS011;6444;49.742;6.114;2024-02-21T12:35:48;7.62;;;3.60;;
12760;SDS011;6444;49.742;6.114;2024-02-21T12:38:15;5.55;;;3.35;;
12760;SDS011;6444;49.742;6.114;2024-02-21T12:40:43;8.55;;;4.55;;
12760;SDS011;6444;49.742;6.114;2024-02-21T12:43:09;9.65;;;3.22;;
12760;SDS011;6444;49.742;6.114;2024-02-21T12:45:36;6.97;;;3.17;;
12760;SDS011;6444;49.742;6.114;2024-02-21T12:48:03;8.95;;;3.25;;
12760;SDS011;6444;49.742;6.114;2024-02-21T12:50:29;13.82;;;3.37;;
12760;SDS011;6444;49.742;6.114;2024-02-21T12:52:56;8.90;;;2.97;;
12760;SDS011;6444;49.742;6.114;2024-02-21T12:55:23;6.55;;;3.25;;
12760;SDS011;6444;49.742;6.114;2024-02-21T12:57:49;8.50;;;3.22;;
12760;SDS011;6444;49.742;6.114;2024-02-21T13:00:17;9.82;;;3.55;;
12760;SDS011;6444;49.742;6.114;2024-02-21T13:02:44;6.68;;;2.83;;
12760;SDS011;6444;49.742;6.114;2024-02-21T13:05:10;8.80;;;3.20;;
12760;SDS011;6444;49.742;6.114;2024-02-21T13:07:37;8.65;;;3.83;;
12760;SDS011;6444;49.742;6.114;2024-02-21T13:10:04;9.32;;;3.62;;
12760;SDS011;6444;49.742;6.114;2024-02-21T13:12:30;8.40;;;3.00;;
12760;SDS011;6444;49.742;6.114;2024-02-21T13:14:57;8.65;;;3.45;;
12760;SDS011;6444;49.742;6.114;2024-02-21T13:17:24;7.28;;;3.22;;
12760;SDS011;6444;49.742;6.114;2024-02-21T13:19:50;10.63;;;4.12;;
12760;SDS011;6444;49.742;6.114;2024-02-21T13:22:17;9.10;;;3.42;;
12760;SDS011;6444;49.742;6.114;2024-02-21T13:24:44;11.10;;;3.00;;
12760;SDS011;6444;49.742;6.114;2024-02-21T13:27:11;6.50;;;3.00;;
12760;SDS011;6444;49.742;6.114;2024-02-21T13:29:37;8.25;;;2.95;;
12760;SDS011;6444;49.742;6.114;2024-02-21T13:32:04;7.53;;;3.50;;
12760;SDS011;6444;49.742;6.114;2024-02-21T13:34:31;7.75;;;3.10;;
12760;SDS011;6444;49.742;6.114;2024-02-21T13:36:57;8.68;;;3.10;;
12760;SDS011;6444;49.742;6.114;2024-02-21T13:39:24;6.82;;;3.12;;
12760;SDS011;6444;49.742;6.114;2024-02-21T13:41:51;9.63;;;3.87;;
12760;SDS011;6444;49.742;6.114;2024-02-21T13:44:17;9.82;;;3.10;;
12760;SDS011;6444;49.742;6.114;2024-02-21T13:46:44;7.35;;;3.08;;
12760;SDS011;6444;49.742;6.114;2024-02-21T13:49:10;8.88;;;3.60;;
12760;SDS011;6444;49.742;6.114;2024-02-21T13:51:37;9.45;;;3.33;;
12760;SDS011;6444;49.742;6.114;2024-02-21T13:54:04;9.35;;;3.45;;
12760;SDS011;6444;49.742;6.114;2024-02-21T13:56:31;9.77;;;4.10;;
12760;SDS011;6444;49.742;6.114;2024-02-21T13:58:58;8.88;;;3.20;;
12760;SDS011;6444;49.742;6.114;2024-02-21T14:01:24;7.07;;;3.28;;
12760;SDS011;6444;49.742;6.114;2024-02-21T14:03:51;9.65;;;4.07;;
12760;SDS011;6444;49.742;6.114;2024-02-21T14:06:18;7.80;;;2.90;;
12760;SDS011;6444;49.742;6.114;2024-02-21T14:08:44;7.68;;;2.90;;
12760;SDS011;6444;49.742;6.114;2024-02-21T14:11:11;4.62;;;2.35;;
12760;SDS011;6444;49.742;6.114;2024-02-21T14:13:38;7.05;;;3.50;;
12760;SDS011;6444;49.742;6.114;2024-02-21T14:16:08;8.95;;;3.70;;
12760;SDS011;6444;49.742;6.114;2024-02-21T14:18:31;6.37;;;3.30;;
12760;SDS011;6444;49.742;6.114;2024-02-21T14:20:58;8.13;;;3.12;;
12760;SDS011;6444;49.742;6.114;2024-02-21T14:23:24;7.18;;;3.55;;
12760;SDS011;6444;49.742;6.114;2024-02-21T14:25:51;9.68;;;3.47;;
12760;SDS011;6444;49.742;6.114;2024-02-21T14:28:17;7.85;;;3.30;;
12760;SDS011;6444;49.742;6.114;2024-02-21T14:30:44;9.70;;;2.80;;
12760;SDS011;6444;49.742;6.114;2024-02-21T14:33:11;8.05;;;2.67;;
12760;SDS011;6444;49.742;6.114;2024-02-21T14:35:37;5.50;;;2.65;;
12760;SDS011;6444;49.742;6.114;2024-02-21T14:38:05;6.37;;;2.67;;
12760;SDS011;6444;49.742;6.114;2024-02-21T14:40:31;5.60;;;2.80;;
12760;SDS011;6444;49.742;6.114;2024-02-21T14:42:58;10.90;;;3.35;;
12760;SDS011;6444;49.742;6.114;2024-02-21T14:45:25;9.43;;;4.00;;
12760;SDS011;6444;49.742;6.114;2024-02-21T14:47:51;6.50;;;3.40;;
12760;SDS011;6444;49.742;6.114;2024-02-21T14:50:18;9.88;;;4.00;;
12760;SDS011;6444;49.742;6.114;2024-02-21T14:52:44;6.45;;;2.75;;